sensor_id;sensor_type;location;lat;lon;timestamp;pressure;altitude;pressure_sealevel;temperature;humidity
4858;BME280;58975;51.978;8.472;2023-02-02T00:03:46;100455.34;;;3.84;100.00
4858;BME280;58975;51.978;8.472;2023-02-02T00:08:42;100462.63;;;3.79;100.00
4858;BME280;58975;51.978;8.472;2023-02-02T00:13:39;100461.69;;;3.80;100.00
4858;BME280;58975;51.978;8.472;2023-02-02T00:18:35;100464.56;;;3.75;100.00
4858;BME280;58975;51.978;8.472;2023-02-02T00:23:32;100466.13;;;3.62;100.00
4858;BME280;58975;51.978;8.472;2023-02-02T00:28:28;100471.16;;;3.67;100.00
4858;BME280;58975;51.978;8.472;2023-02-02T00:33:24;100464.63;;;3.57;100.00
4858;BME280;58975;51.978;8.472;2023-02-02T00:38:21;100471.72;;;3.56;100.00
4858;BME280;58975;51.978;8.472;2023-02-02T00:43:17;100478.28;;;3.48;100.00
4858;BME280;58975;51.978;8.472;2023-02-02T00:48:14;100483.72;;;3.45;100.00
4858;BME280;58975;51.978;8.472;2023-02-02T00:53:10;100492.69;;;3.41;100.00
4858;BME280;58975;51.978;8.472;2023-02-02T00:58:07;100493.59;;;3.40;100.00
4858;BME280;58975;51.978;8.472;2023-02-02T01:03:03;100495.81;;;3.30;100.00
4858;BME280;58975;51.978;8.472;2023-02-02T01:08:02;100496.84;;;3.27;100.00
4858;BME280;58975;51.978;8.472;2023-02-02T01:12:59;100500.53;;;3.23;100.00
4858;BME280;58975;51.978;8.472;2023-02-02T01:17:55;100504.94;;;3.23;100.00
4858;BME280;58975;51.978;8.472;2023-02-02T01:22:52;100502.25;;;3.24;100.00
4858;BME280;58975;51.978;8.472;2023-02-02T01:27:48;100506.56;;;3.25;100.00
4858;BME280;58975;51.978;8.472;2023-02-02T01:32:45;100505.97;;;3.20;100.00
4858;BME280;58975;51.978;8.472;2023-02-02T01:37:41;100504.69;;;3.10;100.00
4858;BME280;58975;51.978;8.472;2023-02-02T01:42:38;100507.69;;;3.03;100.00
4858;BME280;58975;51.978;8.472;2023-02-02T01:47:44;100520.94;;;3.01;100.00
4858;BME280;58975;51.978;8.472;2023-02-02T01:52:46;100524.63;;;2.97;100.00
4858;BME280;58975;51.978;8.472;2023-02-02T01:57:48;100529.41;;;2.89;100.00
4858;BME280;58975;51.978;8.472;2023-02-02T02:02:47;100527.03;;;2.83;100.00
4858;BME280;58975;51.978;8.472;2023-02-02T02:07:46;100539.34;;;2.82;100.00
4858;BME280;58975;51.978;8.472;2023-02-02T02:12:46;100542.81;;;2.83;100.00
4858;BME280;58975;51.978;8.472;2023-02-02T02:18:18;100540.69;;;2.91;100.00
4858;BME280;58975;51.978;8.472;2023-02-02T02:34:44;100554.34;;;2.99;100.00
4858;BME280;58975;51.978;8.472;2023-02-02T02:40:12;100546.88;;;3.09;100.00
4858;BME280;58975;51.978;8.472;2023-02-02T02:45:12;100552.31;;;3.23;100.00
4858;BME280;58975;51.978;8.472;2023-02-02T02:50:10;100549.47;;;3.27;100.00
4858;BME280;58975;51.978;8.472;2023-02-02T02:55:08;100548.25;;;3.34;100.00
4858;BME280;58975;51.978;8.472;2023-02-02T03:00:45;100556.63;;;3.43;100.00
4858;BME280;58975;51.978;8.472;2023-02-02T03:10:44;100551.91;;;3.49;100.00
4858;BME280;58975;51.978;8.472;2023-02-02T03:15:42;100551.84;;;3.51;100.00
4858;BME280;58975;51.978;8.472;2023-02-02T03:20:41;100556.94;;;3.54;100.00
4858;BME280;58975;51.978;8.472;2023-02-02T03:25:38;100553.41;;;3.55;100.00
4858;BME280;58975;51.978;8.472;2023-02-02T03:30:35;100555.88;;;3.58;100.00
4858;BME280;58975;51.978;8.472;2023-02-02T03:35:33;100560.22;;;3.59;100.00
4858;BME280;58975;51.978;8.472;2023-02-02T03:40:29;100564.63;;;3.58;100.00
4858;BME280;58975;51.978;8.472;2023-02-02T03:45:26;100562.63;;;3.63;100.00
4858;BME280;58975;51.978;8.472;2023-02-02T03:50:23;100570.59;;;3.62;100.00
4858;BME280;58975;51.978;8.472;2023-02-02T03:55:20;100577.56;;;3.63;100.00
4858;BME280;58975;51.978;8.472;2023-02-02T04:00:17;100577.34;;;3.67;100.00
4858;BME280;58975;51.978;8.472;2023-02-02T04:05:14;100585.25;;;3.67;100.00
4858;BME280;58975;51.978;8.472;2023-02-02T04:10:11;100585.78;;;3.74;100.00
4858;BME280;58975;51.978;8.472;2023-02-02T04:15:07;100582.09;;;3.78;100.00
4858;BME280;58975;51.978;8.472;2023-02-02T04:20:05;100584.56;;;3.81;100.00
4858;BME280;58975;51.978;8.472;2023-02-02T04:25:01;100599.44;;;3.82;100.00
4858;BME280;58975;51.978;8.472;2023-02-02T04:29:58;100585.19;;;3.86;100.00
4858;BME280;58975;51.978;8.472;2023-02-02T04:34:55;100598.28;;;3.88;100.00
4858;BME280;58975;51.978;8.472;2023-02-02T04:39:51;100590.47;;;3.86;100.00
4858;BME280;58975;51.978;8.472;2023-02-02T04:44:50;100592.63;;;3.95;100.00
4858;BME280;58975;51.978;8.472;2023-02-02T04:49:46;100597.53;;;4.03;100.00
4858;BME280;58975;51.978;8.472;2023-02-02T04:54:43;100593.41;;;4.14;100.00
4858;BME280;58975;51.978;8.472;2023-02-02T04:59:39;100592.78;;;4.09;100.00
4858;BME280;58975;51.978;8.472;2023-02-02T05:04:37;100602.41;;;4.10;100.00
4858;BME280;58975;51.978;8.472;2023-02-02T05:09:34;100594.03;;;4.19;100.00
4858;BME280;58975;51.978;8.472;2023-02-02T05:14:30;100595.88;;;4.17;100.00
4858;BME280;58975;51.978;8.472;2023-02-02T05:19:27;100601.47;;;4.11;100.00
4858;BME280;58975;51.978;8.472;2023-02-02T05:24:23;100591.06;;;4.08;100.00
4858;BME280;58975;51.978;8.472;2023-02-02T05:29:19;100602.69;;;4.04;100.00
4858;BME280;58975;51.978;8.472;2023-02-02T05:34:16;100602.09;;;3.99;100.00
4858;BME280;58975;51.978;8.472;2023-02-02T05:39:12;100603.31;;;3.92;100.00
4858;BME280;58975;51.978;8.472;2023-02-02T05:44:11;100610.69;;;3.86;100.00
4858;BME280;58975;51.978;8.472;2023-02-02T05:49:12;100607.41;;;3.80;100.00
4858;BME280;58975;51.978;8.472;2023-02-02T05:54:09;100606.00;;;3.73;100.00
4858;BME280;58975;51.978;8.472;2023-02-02T05:59:05;100624.53;;;3.72;100.00
4858;BME280;58975;51.978;8.472;2023-02-02T06:04:02;100634.28;;;3.70;100.00
4858;BME280;58975;51.978;8.472;2023-02-02T06:08:59;100638.31;;;3.60;100.00
4858;BME280;58975;51.978;8.472;2023-02-02T06:13:55;100651.59;;;3.57;100.00
4858;BME280;58975;51.978;8.472;2023-02-02T06:18:52;100654.38;;;3.54;100.00
4858;BME280;58975;51.978;8.472;2023-02-02T06:23:50;100647.75;;;3.45;100.00
4858;BME280;58975;51.978;8.472;2023-02-02T06:28:48;100646.44;;;3.37;100.00
4858;BME280;58975;51.978;8.472;2023-02-02T06:33:45;100645.94;;;3.28;100.00
4858;BME280;58975;51.978;8.472;2023-02-02T06:38:42;100658.44;;;3.23;100.00
4858;BME280;58975;51.978;8.472;2023-02-02T06:43:39;100668.31;;;3.18;100.00
4858;BME280;58975;51.978;8.472;2023-02-02T06:48:35;100678.22;;;3.13;100.00
4858;BME280;58975;51.978;8.472;2023-02-02T06:53:33;100681.94;;;3.09;100.00
4858;BME280;58975;51.978;8.472;2023-02-02T06:58:30;100685.63;;;3.05;100.00
4858;BME280;58975;51.978;8.472;2023-02-02T07:03:26;100688.59;;;2.98;100.00
4858;BME280;58975;51.978;8.472;2023-02-02T07:08:23;100688.84;;;2.92;100.00
4858;BME280;58975;51.978;8.472;2023-02-02T07:13:19;100695.13;;;2.89;100.00
4858;BME280;58975;51.978;8.472;2023-02-02T07:18:15;100703.25;;;2.83;100.00
4858;BME280;58975;51.978;8.472;2023-02-02T07:23:12;100693.06;;;2.75;100.00
4858;BME280;58975;51.978;8.472;2023-02-02T07:28:08;100703.94;;;2.68;100.00
4858;BME280;58975;51.978;8.472;2023-02-02T07:33:05;100707.47;;;2.67;100.00
4858;BME280;58975;51.978;8.472;2023-02-02T07:38:01;100711.97;;;2.65;100.00
4858;BME280;58975;51.978;8.472;2023-02-02T07:42:58;100715.44;;;2.65;100.00
4858;BME280;58975;51.978;8.472;2023-02-02T07:47:57;100716.31;;;2.66;100.00
4858;BME280;58975;51.978;8.472;2023-02-02T07:52:53;100727.59;;;2.68;100.00
4858;BME280;58975;51.978;8.472;2023-02-02T07:57:51;100734.44;;;2.72;100.00
4858;BME280;58975;51.978;8.472;2023-02-02T08:02:49;100736.19;;;2.71;100.00
4858;BME280;58975;51.978;8.472;2023-02-02T08:07:46;100750.22;;;2.72;100.00
4858;BME280;58975;51.978;8.472;2023-02-02T08:12:43;100750.94;;;2.75;100.00
4858;BME280;58975;51.978;8.472;2023-02-02T08:17:44;100765.03;;;2.74;100.00
4858;BME280;58975;51.978;8.472;2023-02-02T08:22:40;100767.44;;;2.79;100.00
4858;BME280;58975;51.978;8.472;2023-02-02T08:27:37;100770.19;;;2.76;100.00
4858;BME280;58975;51.978;8.472;2023-02-02T08:32:33;100774.56;;;2.77;100.00
4858;BME280;58975;51.978;8.472;2023-02-02T08:37:29;100783.34;;;2.76;100.00
4858;BME280;58975;51.978;8.472;2023-02-02T08:42:26;100791.19;;;2.77;100.00
4858;BME280;58975;51.978;8.472;2023-02-02T08:47:22;100802.44;;;2.81;100.00
4858;BME280;58975;51.978;8.472;2023-02-02T08:52:19;100809.09;;;2.90;100.00
4858;BME280;58975;51.978;8.472;2023-02-02T08:57:15;100827.09;;;2.99;100.00
4858;BME280;58975;51.978;8.472;2023-02-02T09:02:12;100834.13;;;2.98;100.00
4858;BME280;58975;51.978;8.472;2023-02-02T09:07:13;100835.84;;;2.99;100.00
4858;BME280;58975;51.978;8.472;2023-02-02T09:12:09;100853.94;;;3.07;100.00
4858;BME280;58975;51.978;8.472;2023-02-02T09:17:05;100856.91;;;3.40;100.00
4858;BME280;58975;51.978;8.472;2023-02-02T09:22:02;100861.38;;;3.17;100.00
4858;BME280;58975;51.978;8.472;2023-02-02T09:26:58;100869.47;;;3.13;100.00
4858;BME280;58975;51.978;8.472;2023-02-02T09:31:55;100870.53;;;3.09;100.00
4858;BME280;58975;51.978;8.472;2023-02-02T09:36:51;100867.56;;;3.16;100.00
4858;BME280;58975;51.978;8.472;2023-02-02T09:42:14;100875.19;;;3.22;100.00
4858;BME280;58975;51.978;8.472;2023-02-02T09:52:32;100882.66;;;3.33;100.00
4858;BME280;58975;51.978;8.472;2023-02-02T09:57:47;100884.00;;;3.42;100.00
4858;BME280;58975;51.978;8.472;2023-02-02T10:02:46;100894.53;;;3.42;100.00
4858;BME280;58975;51.978;8.472;2023-02-02T10:07:48;100900.31;;;3.50;100.00
4858;BME280;58975;51.978;8.472;2023-02-02T10:17:54;100896.91;;;3.48;100.00
4858;BME280;58975;51.978;8.472;2023-02-02T10:22:55;100911.78;;;3.49;100.00
4858;BME280;58975;51.978;8.472;2023-02-02T10:28:05;100903.75;;;3.52;100.00
4858;BME280;58975;51.978;8.472;2023-02-02T10:33:12;100914.34;;;3.50;100.00
4858;BME280;58975;51.978;8.472;2023-02-02T10:38:32;100918.16;;;3.43;100.00
4858;BME280;58975;51.978;8.472;2023-02-02T10:49:10;100920.00;;;3.61;100.00
4858;BME280;58975;51.978;8.472;2023-02-02T10:54:23;100927.84;;;3.63;100.00
4858;BME280;58975;51.978;8.472;2023-02-02T10:59:30;100928.91;;;3.59;100.00
4858;BME280;58975;51.978;8.472;2023-02-02T11:04:28;100933.78;;;3.68;100.00
4858;BME280;58975;51.978;8.472;2023-02-02T11:09:43;100929.84;;;3.76;100.00
4858;BME280;58975;51.978;8.472;2023-02-02T11:14:44;100939.41;;;3.79;100.00
4858;BME280;58975;51.978;8.472;2023-02-02T11:19:42;100939.09;;;3.87;100.00
4858;BME280;58975;51.978;8.472;2023-02-02T11:24:44;100939.59;;;3.95;100.00
4858;BME280;58975;51.978;8.472;2023-02-02T11:29:45;100937.34;;;4.06;100.00
4858;BME280;58975;51.978;8.472;2023-02-02T11:34:43;100935.69;;;4.03;100.00
4858;BME280;58975;51.978;8.472;2023-02-02T11:39:40;100946.75;;;4.11;100.00
4858;BME280;58975;51.978;8.472;2023-02-02T11:44:38;100950.00;;;3.98;100.00
4858;BME280;58975;51.978;8.472;2023-02-02T11:49:40;100944.91;;;3.93;100.00
4858;BME280;58975;51.978;8.472;2023-02-02T11:54:38;100956.59;;;3.88;100.00
4858;BME280;58975;51.978;8.472;2023-02-02T11:59:38;100960.00;;;3.90;100.00
4858;BME280;58975;51.978;8.472;2023-02-02T12:04:34;100956.28;;;3.95;100.00
4858;BME280;58975;51.978;8.472;2023-02-02T12:09:31;100961.50;;;4.15;100.00
4858;BME280;58975;51.978;8.472;2023-02-02T12:14:48;100952.53;;;4.19;100.00
4858;BME280;58975;51.978;8.472;2023-02-02T12:20:34;100959.34;;;4.05;100.00
4858;BME280;58975;51.978;8.472;2023-02-02T12:30:45;100955.78;;;4.06;100.00
4858;BME280;58975;51.978;8.472;2023-02-02T12:36:20;100957.34;;;4.10;100.00
4858;BME280;58975;51.978;8.472;2023-02-02T12:41:40;100967.19;;;4.06;100.00
4858;BME280;58975;51.978;8.472;2023-02-02T12:46:47;100968.75;;;4.10;100.00
4858;BME280;58975;51.978;8.472;2023-02-02T12:51:54;100970.47;;;4.11;100.00
4858;BME280;58975;51.978;8.472;2023-02-02T12:57:00;100962.22;;;4.19;100.00
4858;BME280;58975;51.978;8.472;2023-02-02T13:02:04;100967.41;;;4.20;100.00
4858;BME280;58975;51.978;8.472;2023-02-02T13:07:19;100966.13;;;4.10;100.00
4858;BME280;58975;51.978;8.472;2023-02-02T13:12:21;100968.91;;;4.07;100.00
4858;BME280;58975;51.978;8.472;2023-02-02T13:17:32;100955.94;;;4.03;100.00
4858;BME280;58975;51.978;8.472;2023-02-02T13:22:36;100971.03;;;3.99;100.00
4858;BME280;58975;51.978;8.472;2023-02-02T13:27:35;100973.13;;;3.91;100.00
4858;BME280;58975;51.978;8.472;2023-02-02T13:32:37;100979.97;;;3.95;100.00
4858;BME280;58975;51.978;8.472;2023-02-02T13:42:45;100986.56;;;3.85;100.00
4858;BME280;58975;51.978;8.472;2023-02-02T13:47:52;100988.28;;;3.86;100.00
4858;BME280;58975;51.978;8.472;2023-02-02T13:58:18;100998.16;;;3.81;100.00
4858;BME280;58975;51.978;8.472;2023-02-02T14:03:36;100999.34;;;3.94;100.00
4858;BME280;58975;51.978;8.472;2023-02-02T14:08:36;101003.34;;;4.03;100.00
4858;BME280;58975;51.978;8.472;2023-02-02T14:13:42;101008.97;;;3.95;100.00
4858;BME280;58975;51.978;8.472;2023-02-02T14:19:01;101017.13;;;3.89;100.00
4858;BME280;58975;51.978;8.472;2023-02-02T14:24:03;101024.63;;;3.78;100.00
4858;BME280;58975;51.978;8.472;2023-02-02T14:34:39;101036.63;;;3.85;100.00
4858;BME280;58975;51.978;8.472;2023-02-02T14:39:41;101040.44;;;3.98;100.00
4858;BME280;58975;51.978;8.472;2023-02-02T14:45:03;101030.28;;;3.89;100.00
4858;BME280;58975;51.978;8.472;2023-02-02T14:50:03;101037.22;;;3.92;100.00
4858;BME280;58975;51.978;8.472;2023-02-02T14:54:59;101050.75;;;3.84;100.00
4858;BME280;58975;51.978;8.472;2023-02-02T14:59:56;101050.47;;;3.90;100.00
4858;BME280;58975;51.978;8.472;2023-02-02T15:16:02;101057.78;;;3.84;100.00
4858;BME280;58975;51.978;8.472;2023-02-02T15:21:04;101065.88;;;3.79;100.00
4858;BME280;58975;51.978;8.472;2023-02-02T15:26:07;101079.28;;;3.73;100.00
4858;BME280;58975;51.978;8.472;2023-02-02T15:31:17;101080.81;;;3.78;100.00
4858;BME280;58975;51.978;8.472;2023-02-02T15:36:24;101077.91;;;3.85;100.00
4858;BME280;58975;51.978;8.472;2023-02-02T15:41:27;101083.31;;;3.81;100.00
4858;BME280;58975;51.978;8.472;2023-02-02T15:46:31;101086.81;;;3.82;100.00
4858;BME280;58975;51.978;8.472;2023-02-02T15:51:29;101090.97;;;3.88;100.00
4858;BME280;58975;51.978;8.472;2023-02-02T15:56:28;101100.97;;;3.79;100.00
4858;BME280;58975;51.978;8.472;2023-02-02T16:01:28;101093.41;;;3.92;100.00
4858;BME280;58975;51.978;8.472;2023-02-02T16:06:25;101097.03;;;3.90;100.00
4858;BME280;58975;51.978;8.472;2023-02-02T16:11:23;101103.47;;;3.83;100.00
4858;BME280;58975;51.978;8.472;2023-02-02T16:16:26;101097.31;;;3.84;100.00
4858;BME280;58975;51.978;8.472;2023-02-02T16:21:25;101093.53;;;3.89;100.00
4858;BME280;58975;51.978;8.472;2023-02-02T16:26:25;101092.34;;;3.96;100.00
4858;BME280;58975;51.978;8.472;2023-02-02T16:31:23;101097.88;;;3.90;100.00
4858;BME280;58975;51.978;8.472;2023-02-02T16:36:22;101094.84;;;3.79;100.00
4858;BME280;58975;51.978;8.472;2023-02-02T16:41:30;101093.72;;;3.85;100.00
4858;BME280;58975;51.978;8.472;2023-02-02T16:46:46;101096.44;;;3.83;100.00
4858;BME280;58975;51.978;8.472;2023-02-02T16:51:45;101094.34;;;3.91;100.00
4858;BME280;58975;51.978;8.472;2023-02-02T16:56:46;101095.72;;;3.79;100.00
4858;BME280;58975;51.978;8.472;2023-02-02T17:01:47;101099.06;;;3.83;100.00
4858;BME280;58975;51.978;8.472;2023-02-02T17:06:47;101109.06;;;3.75;100.00
4858;BME280;58975;51.978;8.472;2023-02-02T17:12:02;101096.81;;;3.74;100.00
4858;BME280;58975;51.978;8.472;2023-02-02T17:17:00;101099.72;;;3.68;100.00
4858;BME280;58975;51.978;8.472;2023-02-02T17:21:59;101107.72;;;3.65;100.00
4858;BME280;58975;51.978;8.472;2023-02-02T17:26:56;101104.25;;;3.64;100.00
4858;BME280;58975;51.978;8.472;2023-02-02T17:31:53;101106.34;;;3.56;100.00
4858;BME280;58975;51.978;8.472;2023-02-02T17:36:49;101117.47;;;3.41;100.00
4858;BME280;58975;51.978;8.472;2023-02-02T17:41:46;101118.66;;;3.56;100.00
4858;BME280;58975;51.978;8.472;2023-02-02T17:46:43;101110.06;;;3.51;100.00
4858;BME280;58975;51.978;8.472;2023-02-02T17:51:40;101114.34;;;3.53;100.00
4858;BME280;58975;51.978;8.472;2023-02-02T17:56:39;101110.56;;;3.39;100.00
4858;BME280;58975;51.978;8.472;2023-02-02T18:01:38;101106.66;;;3.49;100.00
4858;BME280;58975;51.978;8.472;2023-02-02T18:06:36;101108.66;;;3.42;100.00
4858;BME280;58975;51.978;8.472;2023-02-02T18:11:33;101108.81;;;3.38;100.00
4858;BME280;58975;51.978;8.472;2023-02-02T18:16:29;101106.28;;;3.36;100.00
4858;BME280;58975;51.978;8.472;2023-02-02T18:21:26;101107.56;;;3.48;100.00
4858;BME280;58975;51.978;8.472;2023-02-02T18:26:22;101103.06;;;3.50;100.00
4858;BME280;58975;51.978;8.472;2023-02-02T18:31:20;101096.16;;;3.47;100.00
4858;BME280;58975;51.978;8.472;2023-02-02T18:36:19;101090.63;;;3.53;100.00
4858;BME280;58975;51.978;8.472;2023-02-02T18:41:16;101088.09;;;3.52;100.00
4858;BME280;58975;51.978;8.472;2023-02-02T18:46:14;101092.91;;;3.62;100.00
4858;BME280;58975;51.978;8.472;2023-02-02T18:51:13;101095.22;;;3.70;100.00
4858;BME280;58975;51.978;8.472;2023-02-02T18:56:12;101097.50;;;3.79;100.00
4858;BME280;58975;51.978;8.472;2023-02-02T19:01:14;101092.56;;;3.92;100.00
4858;BME280;58975;51.978;8.472;2023-02-02T19:06:11;101106.84;;;3.86;100.00
4858;BME280;58975;51.978;8.472;2023-02-02T19:11:33;101103.16;;;3.90;100.00
4858;BME280;58975;51.978;8.472;2023-02-02T19:16:31;101090.75;;;3.92;100.00
4858;BME280;58975;51.978;8.472;2023-02-02T19:21:29;101107.19;;;3.99;100.00
4858;BME280;58975;51.978;8.472;2023-02-02T19:26:26;101108.31;;;4.13;100.00
4858;BME280;58975;51.978;8.472;2023-02-02T19:31:23;101107.50;;;4.32;100.00
4858;BME280;58975;51.978;8.472;2023-02-02T19:36:24;101111.22;;;5.05;100.00
4858;BME280;58975;51.978;8.472;2023-02-02T19:41:24;101130.25;;;5.31;100.00
4858;BME280;58975;51.978;8.472;2023-02-02T19:46:24;101140.78;;;5.68;100.00
4858;BME280;58975;51.978;8.472;2023-02-02T19:56:34;101172.50;;;5.85;100.00
4858;BME280;58975;51.978;8.472;2023-02-02T20:01:33;101183.06;;;5.87;100.00
4858;BME280;58975;51.978;8.472;2023-02-02T20:06:30;101185.59;;;5.88;100.00
4858;BME280;58975;51.978;8.472;2023-02-02T20:11:32;101186.25;;;5.93;100.00
4858;BME280;58975;51.978;8.472;2023-02-02T20:16:41;101194.03;;;5.96;100.00
4858;BME280;58975;51.978;8.472;2023-02-02T20:21:42;101204.31;;;6.02;100.00
4858;BME280;58975;51.978;8.472;2023-02-02T20:26:39;101203.47;;;6.02;100.00
4858;BME280;58975;51.978;8.472;2023-02-02T20:31:37;101214.75;;;6.05;100.00
4858;BME280;58975;51.978;8.472;2023-02-02T20:36:39;101223.47;;;6.07;100.00
4858;BME280;58975;51.978;8.472;2023-02-02T20:41:36;101226.88;;;6.09;100.00
4858;BME280;58975;51.978;8.472;2023-02-02T20:46:32;101230.31;;;6.11;100.00
4858;BME280;58975;51.978;8.472;2023-02-02T20:51:28;101232.88;;;6.13;100.00
4858;BME280;58975;51.978;8.472;2023-02-02T20:56:25;101233.72;;;6.13;100.00
4858;BME280;58975;51.978;8.472;2023-02-02T21:01:21;101233.56;;;6.16;100.00
4858;BME280;58975;51.978;8.472;2023-02-02T21:06:18;101237.06;;;6.17;100.00
4858;BME280;58975;51.978;8.472;2023-02-02T21:11:15;101236.06;;;6.19;100.00
4858;BME280;58975;51.978;8.472;2023-02-02T21:16:11;101237.88;;;6.19;100.00
4858;BME280;58975;51.978;8.472;2023-02-02T21:21:07;101237.78;;;6.21;100.00
4858;BME280;58975;51.978;8.472;2023-02-02T21:26:04;101246.56;;;6.21;100.00
4858;BME280;58975;51.978;8.472;2023-02-02T21:31:00;101247.44;;;6.22;100.00
4858;BME280;58975;51.978;8.472;2023-02-02T21:36:14;101251.66;;;6.26;100.00
4858;BME280;58975;51.978;8.472;2023-02-02T21:41:15;101248.13;;;6.25;100.00
4858;BME280;58975;51.978;8.472;2023-02-02T21:46:27;101249.00;;;6.26;100.00
4858;BME280;58975;51.978;8.472;2023-02-02T21:51:27;101237.34;;;6.30;100.00
4858;BME280;58975;51.978;8.472;2023-02-02T21:56:37;101228.38;;;6.32;100.00
4858;BME280;58975;51.978;8.472;2023-02-02T22:01:36;101236.31;;;6.32;100.00
4858;BME280;58975;51.978;8.472;2023-02-02T22:06:35;101227.53;;;6.32;100.00
4858;BME280;58975;51.978;8.472;2023-02-02T22:11:41;101228.31;;;6.34;100.00
4858;BME280;58975;51.978;8.472;2023-02-02T22:16:45;101219.34;;;6.36;100.00
4858;BME280;58975;51.978;8.472;2023-02-02T22:21:43;101211.44;;;6.36;100.00
4858;BME280;58975;51.978;8.472;2023-02-02T22:26:40;101217.56;;;6.37;100.00
4858;BME280;58975;51.978;8.472;2023-02-02T22:31:36;101222.66;;;6.41;100.00
4858;BME280;58975;51.978;8.472;2023-02-02T22:36:33;101197.91;;;6.42;100.00
4858;BME280;58975;51.978;8.472;2023-02-02T22:41:29;101188.94;;;6.45;100.00
4858;BME280;58975;51.978;8.472;2023-02-02T22:46:26;101149.25;;;6.45;100.00
4858;BME280;58975;51.978;8.472;2023-02-02T22:51:22;101146.53;;;6.46;100.00
4858;BME280;58975;51.978;8.472;2023-02-02T22:56:18;101150.81;;;6.49;100.00
4858;BME280;58975;51.978;8.472;2023-02-02T23:01:15;101161.22;;;6.52;100.00
4858;BME280;58975;51.978;8.472;2023-02-02T23:06:12;101154.09;;;6.54;100.00
4858;BME280;58975;51.978;8.472;2023-02-02T23:11:08;101167.91;;;6.59;100.00
4858;BME280;58975;51.978;8.472;2023-02-02T23:16:04;101160.75;;;6.61;100.00
4858;BME280;58975;51.978;8.472;2023-02-02T23:21:02;101139.53;;;6.62;100.00
4858;BME280;58975;51.978;8.472;2023-02-02T23:25:58;101122.50;;;6.66;100.00
4858;BME280;58975;51.978;8.472;2023-02-02T23:30:55;101113.66;;;6.68;100.00
4858;BME280;58975;51.978;8.472;2023-02-02T23:35:54;101090.50;;;6.71;100.00
4858;BME280;58975;51.978;8.472;2023-02-02T23:40:50;101079.84;;;6.73;100.00
4858;BME280;58975;51.978;8.472;2023-02-02T23:45:47;101042.88;;;6.71;100.00
4858;BME280;58975;51.978;8.472;2023-02-02T23:50:44;101034.78;;;6.74;100.00
4858;BME280;58975;51.978;8.472;2023-02-02T23:55:42;101032.91;;;6.76;100.00
